MU-0001 weather

Agalega Island Airstrip
Vingt Cinq, Agalega Islands, Mauritius

Public forecast

Using degrees Celsius for public forecast. Weather courtesy of forecast.io.

METAR (pilot weather report)

Report is more than 2 hours old.

Closest report is Arrachart Airport, 446.8 nm (827.4 km) WSW. Retrieved 2019/07/20 15:00 UTC (4 hours ago):

FMNA 201500Z 16010KT 9999 VCSH SCT020 BKN040 24/20 Q1014

TAF (pilot weather forecast)

Closest forecast is Arrachart Airport, 446.8 nm (827.4 km) WSW. Retrieved 2019/07/20 18:03 UTC (1 hour ago):

TAF FMNA 201700Z 2018/2118 14008KT 9999 SCT020 BKN040 PROB30 TEMPO 2018/2118 4000 SHRA